EDT,Max TemperatureF,Mean TemperatureF,Min TemperatureF,Max Dew PointF,MeanDew PointF,Min DewpointF,Max Humidity, Mean Humidity, Min Humidity, Max Sea Level PressureIn, Mean Sea Level PressureIn, Min Sea Level PressureIn, Max VisibilityMiles, Mean VisibilityMiles, Min VisibilityMiles, Max Wind SpeedMPH, Mean Wind SpeedMPH, Max Gust SpeedMPH,PrecipitationIn, CloudCover, Events, WindDirDegrees
2013-8-1,90,82,74,75,73,69,94,73,52,30.04,29.99,29.93,10,10,10,10,3,30,0.00,2,,220
2013-8-2,93,83,73,74,72,67,93,67,41,30.04,29.99,29.95,10,10,10,13,2,16,0.00,3,Fog,197
2013-8-3,93,84,74,76,73,71,91,72,52,30.07,30.04,29.99,10,10,9,14,3,20,T,2,Fog-Thunderstorm,236
2013-8-4,97,87,76,77,73,66,94,66,38,30.06,30.02,29.95,10,9,6,13,5,17,T,2,Fog,306
2013-8-5,96,85,74,77,72,68,87,65,43,30.02,29.98,29.92,10,10,7,12,3,16,0.00,2,,266
2013-8-6,97,86,75,76,70,64,88,62,35,29.99,29.95,29.91,10,10,6,16,3,18,0.00,2,Rain-Thunderstorm,17
2013-8-7,93,85,76,77,73,70,94,73,52,30.00,29.97,29.93,10,10,2,23,5,33,0.07,3,Rain-Thunderstorm,118
2013-8-8,92,85,77,77,74,72,91,72,52,30.03,29.99,29.95,10,10,9,17,5,,T,4,Rain-Thunderstorm,91
2013-8-9,93,85,76,76,74,70,91,75,59,30.08,30.03,29.99,10,9,0,30,5,37,0.91,3,Rain-Thunderstorm,104
2013-8-10,90,83,76,74,72,69,94,73,52,30.13,30.09,30.06,10,10,10,17,5,29,0.09,3,Thunderstorm,144
2013-8-11,96,86,75,76,72,69,91,69,46,30.16,30.12,30.08,10,9,0,15,2,30,0.66,3,Rain-Thunderstorm,111
2013-8-12,96,86,75,75,71,64,94,65,36,30.13,30.08,30.02,10,10,9,10,3,14,T,1,Fog,301
2013-8-13,92,83,74,76,72,69,93,73,52,30.05,30.01,29.94,10,10,10,20,4,23,T,3,Rain-Thunderstorm,276
2013-8-14,93,84,74,76,73,70,94,73,52,29.98,29.94,29.88,10,9,0,26,3,31,0.56,3,Rain-Thunderstorm,232
2013-8-15,91,82,73,75,72,70,93,73,52,30.00,29.96,29.93,10,9,1,22,5,28,0.34,4,Rain-Thunderstorm,179
2013-8-16,86,80,74,76,73,71,94,82,69,30.04,29.99,29.95,10,10,10,13,4,22,0.07,4,Fog-Rain-Thunderstorm,173
2013-8-17,84,78,72,76,71,70,93,79,65,30.09,30.04,29.99,10,8,0,29,6,33,2.20,6,Rain-Thunderstorm,99
2013-8-18,86,79,72,77,72,69,93,77,61,30.11,30.08,30.03,10,9,1,29,5,33,0.44,4,Rain-Thunderstorm,89
2013-8-19,91,83,74,77,73,70,93,73,52,30.09,30.04,29.99,10,9,0,21,3,26,0.84,6,Fog-Rain-Thunderstorm,311
2013-8-20,90,82,74,76,73,71,94,77,59,30.12,30.06,30.00,10,9,2,17,4,,0.54,4,Fog-Rain-Thunderstorm,29
2013-8-21,93,83,72,75,70,69,87,68,49,30.15,30.12,30.09,10,10,10,20,4,26,0.02,2,Rain-Thunderstorm,86
2013-8-22,83,78,73,75,72,70,94,85,76,30.15,30.10,30.03,10,8,2,18,5,25,0.75,5,Rain-Thunderstorm,79
2013-8-23,88,80,71,74,71,68,93,74,55,30.06,30.03,29.99,10,9,2,13,3,17,0.03,4,Fog-Rain-Thunderstorm,114
2013-8-24,85,79,73,75,72,70,93,79,65,30.14,30.09,30.03,10,10,10,10,3,24,T,4,Rain,73
2013-8-25,88,82,75,72,70,68,87,70,53,30.23,30.18,30.14,10,10,9,14,7,18,0.00,4,,67
2013-8-26,90,81,72,67,64,61,79,59,38,30.21,30.16,30.09,10,10,10,13,6,24,0.00,2,,50
2013-8-27,92,82,72,71,69,64,87,64,41,30.13,30.06,30.01,10,10,10,22,3,30,T,3,,98
2013-8-28,94,84,73,72,70,63,93,66,38,30.07,30.02,29.99,10,9,1,12,2,15,0.00,3,Fog,136
2013-8-29,95,83,70,70,67,61,93,63,33,30.05,30.00,29.94,10,10,10,20,5,31,0.00,0,Fog,304
2013-8-30,96,85,73,73,71,67,87,63,39,30.00,29.94,29.87,10,9,1,29,5,40,1.10,4,Rain-Thunderstorm,317
2013-8-31,89,81,72,76,72,70,100,80,59,29.96,29.92,29.88,10,6,0,17,3,21,T,4,Fog-Rain,141